Time;durP1;ratioP1;P1;durP2;ratioP2;P2;SDS_P1;SDS_P2;PMS_P1;PMS_P2;Temp;Humidity;BMP_temperature;BMP_pressure;BME280_temperature;BME280_humidity;BME280_pressure;Samples;Min_cycle;Max_cycle;Signal;HPM_P1;HPM_P2
2024/03/29 00:01:18;;;;;;;5.17;1.90;;;7.70;98.80;;;;;;493999;241;28486;-74
2024/03/29 00:03:19;;;;;;;2.30;1.50;;;7.70;98.70;;;;;;493970;241;28512;-73
2024/03/29 00:05:20;;;;;;;4.13;1.70;;;7.60;98.90;;;;;;493958;241;27962;-74
2024/03/29 00:07:21;;;;;;;3.90;1.60;;;7.70;98.90;;;;;;493949;241;27814;-73
2024/03/29 00:09:23;;;;;;;4.33;1.83;;;7.70;98.80;;;;;;494014;241;27952;-74
2024/03/29 00:11:24;;;;;;;2.07;1.33;;;7.60;98.70;;;;;;494014;241;28005;-75
2024/03/29 00:13:25;;;;;;;2.57;1.50;;;7.60;98.70;;;;;;494017;241;27936;-73
2024/03/29 00:15:26;;;;;;;3.27;1.40;;;7.60;98.50;;;;;;493997;241;27871;-74
2024/03/29 00:17:28;;;;;;;3.50;1.60;;;7.70;98.70;;;;;;493962;241;28119;-73
2024/03/29 00:19:29;;;;;;;2.20;1.47;;;7.60;99.00;;;;;;493983;241;28082;-73
2024/03/29 00:21:31;;;;;;;2.10;1.50;;;7.60;98.90;;;;;;493967;241;28008;-74
2024/03/29 00:23:31;;;;;;;2.67;1.63;;;7.60;98.90;;;;;;493951;241;27926;-73
2024/03/29 00:25:33;;;;;;;2.37;1.50;;;7.70;98.70;;;;;;493892;241;28198;-73
2024/03/29 00:27:34;;;;;;;12.90;2.30;;;7.70;98.50;;;;;;493993;241;27807;-74
2024/03/29 00:29:36;;;;;;;3.03;1.40;;;7.70;98.20;;;;;;493953;241;27954;-73
2024/03/29 00:31:36;;;;;;;1.50;1.40;;;7.70;98.70;;;;;;493882;241;27838;-73
2024/03/29 00:33:38;;;;;;;1.77;1.47;;;7.70;98.70;;;;;;493924;241;28145;-73
2024/03/29 00:35:39;;;;;;;1.87;1.53;;;7.70;98.80;;;;;;493900;241;28509;-73
2024/03/29 00:37:40;;;;;;;2.83;1.50;;;7.70;98.90;;;;;;494011;241;28363;-76
2024/03/29 00:39:41;;;;;;;1.40;1.30;;;7.70;98.90;;;;;;493959;237;28411;-73
2024/03/29 00:41:43;;;;;;;2.20;1.63;;;7.70;98.50;;;;;;493960;241;28572;-73
2024/03/29 00:43:44;;;;;;;2.63;1.70;;;7.70;98.60;;;;;;493981;241;28017;-73
2024/03/29 00:45:45;;;;;;;2.53;1.53;;;7.70;98.70;;;;;;494007;237;27920;-73
2024/03/29 00:47:46;;;;;;;3.70;1.47;;;7.80;98.60;;;;;;493855;237;27644;-74
2024/03/29 00:49:48;;;;;;;3.53;1.60;;;7.80;98.90;;;;;;493957;241;27952;-73
2024/03/29 00:51:49;;;;;;;1.30;1.20;;;7.80;98.80;;;;;;493993;241;27983;-73
2024/03/29 00:53:50;;;;;;;2.43;1.60;;;7.80;98.80;;;;;;493948;241;27872;-72
2024/03/29 00:55:52;;;;;;;2.60;1.57;;;7.80;98.70;;;;;;494021;241;27920;-74
2024/03/29 00:57:53;;;;;;;2.33;1.40;;;7.90;98.50;;;;;;493974;241;28058;-74
2024/03/29 00:59:54;;;;;;;2.77;1.67;;;7.90;98.60;;;;;;493963;241;27842;-73
2024/03/29 01:01:55;;;;;;;2.63;1.40;;;7.90;98.40;;;;;;493924;241;27857;-74
2024/03/29 01:03:56;;;;;;;2.60;1.60;;;8.00;98.20;;;;;;493986;241;28335;-75
2024/03/29 01:05:58;;;;;;;3.20;1.30;;;8.00;98.40;;;;;;493986;241;27913;-73
2024/03/29 01:07:59;;;;;;;3.13;1.40;;;8.00;98.10;;;;;;493946;241;27910;-74
2024/03/29 01:10:00;;;;;;;4.00;1.57;;;8.10;98.30;;;;;;493922;241;27882;-73
2024/03/29 01:12:01;;;;;;;2.20;1.30;;;8.00;98.40;;;;;;493923;241;28395;-74
2024/03/29 01:14:03;;;;;;;2.33;1.57;;;8.00;98.40;;;;;;493994;241;28590;-74
2024/03/29 01:16:04;;;;;;;2.00;1.50;;;8.00;98.50;;;;;;493973;241;28404;-73
2024/03/29 01:18:05;;;;;;;6.10;1.40;;;8.10;98.40;;;;;;493931;241;28496;-74
2024/03/29 01:20:08;;;;;;;1.47;1.30;;;8.10;98.60;;;;;;493889;241;28510;-73
2024/03/29 01:22:08;;;;;;;4.50;1.80;;;8.10;98.70;;;;;;493902;241;28225;-73
2024/03/29 01:24:09;;;;;;;4.67;1.83;;;8.00;98.70;;;;;;493972;241;28118;-74
2024/03/29 01:26:14;;;;;;;2.53;1.50;;;8.10;98.70;;;;;;493953;240;27975;-74
2024/03/29 01:28:11;;;;;;;1.33;1.23;;;8.10;98.50;;;;;;493609;241;27752;-75
2024/03/29 01:30:14;;;;;;;3.17;1.60;;;8.10;98.20;;;;;;493926;241;27995;-73
2024/03/29 01:32:14;;;;;;;1.43;1.30;;;8.10;98.30;;;;;;493920;241;27683;-74
2024/03/29 01:34:16;;;;;;;1.80;1.57;;;8.20;98.40;;;;;;493943;241;28143;-74
2024/03/29 01:36:16;;;;;;;2.10;1.50;;;8.10;98.40;;;;;;493899;241;27792;-73
2024/03/29 01:38:18;;;;;;;1.90;1.40;;;8.10;98.20;;;;;;493905;241;27504;-73
2024/03/29 01:40:19;;;;;;;2.57;1.40;;;8.10;98.30;;;;;;493981;241;28181;-75
2024/03/29 01:42:20;;;;;;;1.70;1.60;;;8.20;98.10;;;;;;493973;241;28393;-73
2024/03/29 01:44:21;;;;;;;2.80;1.43;;;8.20;98.30;;;;;;493957;241;28022;-74
2024/03/29 01:46:23;;;;;;;1.97;1.53;;;8.20;98.10;;;;;;493928;241;27966;-73
2024/03/29 01:48:24;;;;;;;4.50;1.70;;;8.30;97.60;;;;;;493904;241;27954;-73
2024/03/29 01:50:25;;;;;;;1.90;1.60;;;8.30;97.70;;;;;;493965;241;28011;-73
2024/03/29 01:52:26;;;;;;;1.23;1.17;;;8.40;97.60;;;;;;493955;241;28029;-73
2024/03/29 01:54:28;;;;;;;2.27;1.60;;;8.40;97.50;;;;;;493926;241;28148;-74
2024/03/29 01:56:29;;;;;;;1.47;1.37;;;8.30;97.70;;;;;;493893;241;27458;-74
2024/03/29 01:58:30;;;;;;;2.43;1.40;;;8.40;97.50;;;;;;493966;241;27832;-74
2024/03/29 02:00:31;;;;;;;3.20;1.70;;;8.30;97.40;;;;;;493982;241;27883;-75
2024/03/29 02:02:33;;;;;;;1.73;1.63;;;8.40;97.50;;;;;;493903;241;27920;-73
2024/03/29 02:04:34;;;;;;;3.23;1.47;;;8.40;97.30;;;;;;493917;241;28073;-73
2024/03/29 02:06:35;;;;;;;2.73;1.30;;;8.40;97.00;;;;;;493939;241;28017;-74
2024/03/29 02:08:37;;;;;;;2.33;1.30;;;8.40;97.30;;;;;;493978;241;27890;-73
2024/03/29 02:10:38;;;;;;;2.70;1.50;;;8.50;97.30;;;;;;493972;241;27959;-73
2024/03/29 02:12:39;;;;;;;1.73;1.43;;;8.40;97.20;;;;;;493938;241;27812;-73
2024/03/29 02:14:42;;;;;;;1.93;1.30;;;8.50;97.40;;;;;;493927;241;28154;-73
2024/03/29 02:16:42;;;;;;;5.00;1.20;;;8.50;97.30;;;;;;493866;241;27787;-74
2024/03/29 02:18:43;;;;;;;1.47;1.23;;;8.50;97.00;;;;;;493929;241;27571;-73
2024/03/29 02:20:44;;;;;;;2.90;1.40;;;8.50;97.10;;;;;;493699;241;28469;-74
2024/03/29 02:22:45;;;;;;;1.30;1.20;;;8.70;96.10;;;;;;493886;241;28474;-73
2024/03/29 02:24:46;;;;;;;1.70;1.30;;;8.70;96.80;;;;;;493878;241;28380;-74
2024/03/29 02:26:48;;;;;;;1.40;1.30;;;8.70;96.90;;;;;;493975;241;28479;-74
2024/03/29 02:28:49;;;;;;;1.87;1.40;;;8.80;96.60;;;;;;493934;241;28066;-73
2024/03/29 02:30:50;;;;;;;2.33;1.30;;;8.80;96.80;;;;;;493887;241;27959;-73
2024/03/29 02:32:51;;;;;;;1.70;1.43;;;8.80;96.60;;;;;;493909;241;27983;-73
2024/03/29 02:34:53;;;;;;;1.67;1.47;;;8.80;96.70;;;;;;493971;241;27492;-73
2024/03/29 02:36:54;;;;;;;2.90;1.30;;;8.80;96.60;;;;;;493942;241;27785;-74
2024/03/29 02:38:55;;;;;;;1.23;1.13;;;8.90;96.50;;;;;;493940;241;27818;-73
2024/03/29 02:40:56;;;;;;;1.50;1.40;;;8.90;96.20;;;;;;493932;241;27525;-74
2024/03/29 02:42:58;;;;;;;3.07;1.53;;;8.90;96.20;;;;;;493920;241;27975;-73
2024/03/29 02:44:59;;;;;;;1.90;1.30;;;8.90;96.50;;;;;;493960;241;27726;-73
2024/03/29 02:47:00;;;;;;;2.33;1.40;;;8.90;96.50;;;;;;493934;241;27952;-73
2024/03/29 02:49:01;;;;;;;1.37;1.27;;;8.90;96.90;;;;;;493919;241;28054;-73
2024/03/29 02:51:03;;;;;;;1.40;1.30;;;9.00;96.50;;;;;;493865;241;27902;-73
2024/03/29 02:53:04;;;;;;;3.23;1.70;;;9.00;97.10;;;;;;493952;237;27995;-74
2024/03/29 02:55:05;;;;;;;5.33;1.30;;;9.00;97.10;;;;;;493942;241;28117;-73
2024/03/29 02:57:06;;;;;;;2.87;1.40;;;9.10;98.10;;;;;;493915;241;28102;-74
2024/03/29 02:59:08;;;;;;;1.43;1.30;;;9.00;98.50;;;;;;493927;241;28259;-73
2024/03/29 03:01:09;;;;;;;2.87;1.40;;;9.00;98.90;;;;;;493918;241;28524;-74
2024/03/29 03:03:10;;;;;;;2.00;1.20;;;8.90;99.20;;;;;;493985;241;28438;-75
2024/03/29 03:05:11;;;;;;;1.40;1.30;;;8.90;99.90;;;;;;493957;241;28425;-73
2024/03/29 03:11:49;;;;;;;4.60;1.47;;;8.70;99.90;;;;;;484559;245;27771;-72
2024/03/29 03:13:50;;;;;;;3.33;1.50;;;8.60;99.90;;;;;;487865;241;27752;-73
2024/03/29 03:15:52;;;;;;;3.17;1.50;;;8.60;99.90;;;;;;493905;241;27915;-72
2024/03/29 03:17:53;;;;;;;2.63;1.20;;;8.60;99.90;;;;;;493901;241;27554;-73
2024/03/29 03:19:54;;;;;;;1.33;1.23;;;8.60;99.90;;;;;;493967;241;27959;-72
2024/03/29 03:21:55;;;;;;;1.70;1.60;;;8.60;99.90;;;;;;493955;241;28460;-72
2024/03/29 03:23:57;;;;;;;1.80;1.40;;;8.50;99.90;;;;;;493942;241;28418;-73
2024/03/29 03:25:58;;;;;;;1.40;1.30;;;8.50;99.90;;;;;;493891;241;28357;-73
2024/03/29 03:27:59;;;;;;;2.33;1.20;;;8.50;99.90;;;;;;493888;241;28372;-73
2024/03/29 03:30:00;;;;;;;3.53;1.70;;;8.50;99.90;;;;;;493939;241;28512;-75
2024/03/29 03:32:02;;;;;;;4.33;1.43;;;8.50;99.90;;;;;;493948;241;27963;-73
2024/03/29 03:34:03;;;;;;;1.30;1.20;;;8.50;99.90;;;;;;493927;241;27870;-74
2024/03/29 03:36:04;;;;;;;2.73;1.20;;;8.30;99.90;;;;;;493926;241;28163;-73
2024/03/29 03:38:05;;;;;;;3.60;1.30;;;8.30;99.90;;;;;;493937;241;28086;-74
2024/03/29 03:40:07;;;;;;;1.63;1.40;;;8.30;99.90;;;;;;493976;238;28103;-76
2024/03/29 03:42:08;;;;;;;2.20;1.47;;;8.20;99.90;;;;;;493971;241;28137;-74
2024/03/29 03:44:09;;;;;;;3.60;1.60;;;8.20;99.90;;;;;;493938;241;28066;-74
2024/03/29 03:46:10;;;;;;;2.33;1.30;;;8.20;99.90;;;;;;493913;237;27981;-73
2024/03/29 03:48:12;;;;;;;1.37;1.27;;;8.10;99.90;;;;;;493975;241;27990;-74
2024/03/29 03:50:13;;;;;;;3.37;1.47;;;8.10;99.90;;;;;;493952;241;28057;-74
2024/03/29 03:52:14;;;;;;;1.30;1.20;;;8.10;99.90;;;;;;493924;241;27524;-74
2024/03/29 03:54:15;;;;;;;1.57;1.43;;;8.00;99.90;;;;;;493755;241;27998;-74
2024/03/29 03:56:17;;;;;;;2.30;1.20;;;8.00;99.90;;;;;;493994;241;27837;-73
2024/03/29 03:58:18;;;;;;;2.07;1.20;;;7.90;99.90;;;;;;493980;241;27957;-74
2024/03/29 04:00:22;;;;;;;4.10;1.37;;;7.90;99.90;;;;;;493778;237;28451;-73
2024/03/29 04:02:20;;;;;;;3.40;1.50;;;7.90;99.90;;;;;;493770;237;28576;-73
2024/03/29 04:04:22;;;;;;;2.13;1.50;;;7.80;99.90;;;;;;493926;241;28604;-75
2024/03/29 04:06:23;;;;;;;3.57;1.50;;;7.80;99.90;;;;;;493991;237;28744;-75
2024/03/29 04:08:24;;;;;;;1.50;1.40;;;7.60;99.90;;;;;;493979;241;27926;-74
2024/03/29 04:10:25;;;;;;;2.93;1.33;;;7.60;99.90;;;;;;493933;241;28098;-74
2024/03/29 04:12:27;;;;;;;1.23;1.13;;;7.60;99.90;;;;;;493944;241;27790;-74
2024/03/29 04:14:28;;;;;;;2.87;1.50;;;7.60;99.90;;;;;;493919;241;27815;-74
2024/03/29 04:16:29;;;;;;;1.60;1.40;;;7.60;99.90;;;;;;493997;241;28095;-75
2024/03/29 04:18:30;;;;;;;2.90;1.73;;;7.60;99.90;;;;;;493944;241;27942;-73
2024/03/29 04:20:32;;;;;;;4.13;2.00;;;7.60;99.90;;;;;;493977;241;28274;-73
2024/03/29 04:22:33;;;;;;;2.37;1.40;;;7.60;99.90;;;;;;493905;237;28061;-73
2024/03/29 04:24:34;;;;;;;1.63;1.40;;;7.50;99.90;;;;;;493992;241;27810;-73
2024/03/29 04:26:36;;;;;;;2.30;1.60;;;7.60;99.90;;;;;;493984;241;27986;-73
2024/03/29 04:28:37;;;;;;;2.90;1.67;;;7.60;99.90;;;;;;493891;241;27919;-73
2024/03/29 04:30:38;;;;;;;1.60;1.50;;;7.50;99.90;;;;;;493899;241;28103;-73
2024/03/29 04:32:39;;;;;;;3.00;1.90;;;7.50;99.90;;;;;;493942;241;27709;-73
2024/03/29 04:34:40;;;;;;;1.80;1.27;;;7.50;99.90;;;;;;493975;241;28190;-72
2024/03/29 04:36:42;;;;;;;3.57;1.50;;;7.50;99.90;;;;;;493988;241;27861;-73
2024/03/29 04:38:44;;;;;;;2.60;1.43;;;7.40;99.90;;;;;;493957;237;28364;-73
2024/03/29 04:40:44;;;;;;;3.27;1.50;;;7.40;99.90;;;;;;493875;241;28478;-73
2024/03/29 04:42:45;;;;;;;1.63;1.47;;;7.40;99.90;;;;;;493982;241;28485;-75
2024/03/29 04:44:47;;;;;;;1.50;1.37;;;7.40;99.90;;;;;;493929;241;28487;-73
2024/03/29 04:46:48;;;;;;;4.03;1.80;;;7.50;99.90;;;;;;493954;241;28468;-73
2024/03/29 04:48:49;;;;;;;2.80;1.50;;;7.40;99.90;;;;;;493944;241;28283;-73
2024/03/29 04:50:50;;;;;;;1.37;1.27;;;7.50;99.90;;;;;;493946;241;27970;-72
2024/03/29 04:52:52;;;;;;;1.30;1.20;;;7.40;99.90;;;;;;493974;241;28015;-75
2024/03/29 04:54:53;;;;;;;3.17;1.30;;;7.50;99.90;;;;;;493949;237;28072;-73
2024/03/29 04:56:54;;;;;;;3.10;1.60;;;7.50;99.90;;;;;;493945;241;28006;-73
2024/03/29 04:58:55;;;;;;;1.50;1.40;;;7.50;99.90;;;;;;493898;241;27707;-73
2024/03/29 05:00:57;;;;;;;3.17;1.40;;;7.40;99.90;;;;;;493804;241;27920;-73
2024/03/29 05:02:58;;;;;;;1.27;1.17;;;7.40;99.90;;;;;;493942;241;28289;-74
2024/03/29 05:04:59;;;;;;;1.40;1.30;;;7.40;99.90;;;;;;493958;241;27785;-73
2024/03/29 05:07:01;;;;;;;1.53;1.30;;;7.40;99.90;;;;;;493912;241;27862;-73
2024/03/29 05:09:02;;;;;;;2.97;1.60;;;7.40;99.90;;;;;;493920;241;28075;-73
2024/03/29 05:11:03;;;;;;;1.67;1.10;;;7.40;99.90;;;;;;493968;241;27702;-73
2024/03/29 05:13:04;;;;;;;1.13;1.13;;;7.40;99.90;;;;;;493951;241;28120;-74
2024/03/29 05:15:05;;;;;;;1.83;1.33;;;7.40;99.90;;;;;;493949;241;28062;-73
2024/03/29 05:17:07;;;;;;;3.27;1.20;;;7.40;99.90;;;;;;493914;241;27709;-73
2024/03/29 05:19:08;;;;;;;1.50;1.40;;;7.40;99.90;;;;;;494006;241;28597;-73
2024/03/29 05:21:09;;;;;;;3.63;1.53;;;7.40;99.90;;;;;;493987;241;28232;-73
2024/03/29 05:23:14;;;;;;;1.90;1.50;;;7.40;99.90;;;;;;493964;241;28762;-73
2024/03/29 05:25:12;;;;;;;3.43;1.30;;;7.40;99.90;;;;;;493689;241;28493;-73
2024/03/29 05:27:13;;;;;;;1.80;1.70;;;7.50;99.90;;;;;;493915;241;28480;-73
2024/03/29 05:29:14;;;;;;;2.30;1.23;;;7.50;99.90;;;;;;493980;241;28053;-76
2024/03/29 05:31:15;;;;;;;1.60;1.50;;;7.50;99.90;;;;;;493933;241;28009;-73
2024/03/29 05:33:17;;;;;;;1.43;1.33;;;7.50;99.90;;;;;;493933;241;27606;-74
2024/03/29 05:35:18;;;;;;;1.80;1.33;;;7.40;99.90;;;;;;493936;241;28086;-73
2024/03/29 05:37:19;;;;;;;2.50;1.30;;;7.50;99.90;;;;;;493938;241;28115;-73
2024/03/29 05:39:20;;;;;;;1.30;1.27;;;7.50;99.90;;;;;;493991;241;27746;-75
2024/03/29 05:41:22;;;;;;;3.70;1.77;;;7.50;99.90;;;;;;493961;241;27469;-73
2024/03/29 05:43:23;;;;;;;3.33;1.50;;;7.50;99.90;;;;;;493947;241;27778;-73
2024/03/29 05:45:25;;;;;;;1.40;1.30;;;7.50;99.90;;;;;;493903;241;28043;-73
2024/03/29 05:47:25;;;;;;;2.10;1.47;;;7.50;99.90;;;;;;493940;241;27977;-73
2024/03/29 05:49:27;;;;;;;3.40;1.30;;;7.50;99.90;;;;;;493979;241;28007;-74
2024/03/29 05:51:28;;;;;;;1.30;1.27;;;7.50;99.90;;;;;;493943;241;27709;-73
2024/03/29 05:53:29;;;;;;;1.20;1.20;;;7.50;99.90;;;;;;493920;237;28014;-73
2024/03/29 05:55:30;;;;;;;1.10;1.00;;;7.50;99.90;;;;;;493949;241;28140;-73
2024/03/29 05:57:34;;;;;;;3.50;1.13;;;7.50;99.90;;;;;;493971;241;27598;-73
2024/03/29 05:59:33;;;;;;;1.50;1.40;;;7.50;99.90;;;;;;493718;241;28634;-75
2024/03/29 06:01:34;;;;;;;3.10;1.40;;;7.50;99.90;;;;;;493923;241;28487;-73
2024/03/29 06:03:35;;;;;;;1.87;1.20;;;7.60;99.90;;;;;;493866;241;28102;-74
2024/03/29 06:05:37;;;;;;;1.33;1.10;;;7.60;99.90;;;;;;493978;241;28547;-74
2024/03/29 06:07:38;;;;;;;1.77;1.40;;;7.60;99.90;;;;;;493916;241;28295;-73
2024/03/29 06:09:39;;;;;;;1.30;1.20;;;7.70;99.90;;;;;;493941;241;28029;-74
2024/03/29 06:11:40;;;;;;;1.27;1.20;;;7.70;99.90;;;;;;493880;241;27961;-72
2024/03/29 06:18:16;;;;;;;1.33;1.30;;;7.80;99.90;;;;;;493970;241;27902;-70
2024/03/29 06:20:15;;;;;;;2.27;1.30;;;7.80;99.90;;;;;;493815;241;27959;-74
2024/03/29 06:22:17;;;;;;;2.50;1.60;;;7.80;99.90;;;;;;493927;241;28055;-73
2024/03/29 06:24:18;;;;;;;3.37;1.37;;;7.80;99.90;;;;;;494004;241;28026;-74
2024/03/29 06:26:20;;;;;;;2.80;1.50;;;7.70;99.90;;;;;;493936;241;27993;-74
2024/03/29 06:28:20;;;;;;;2.60;1.33;;;7.70;99.90;;;;;;493826;241;28537;-73
2024/03/29 06:30:22;;;;;;;1.03;1.03;;;7.80;99.90;;;;;;493897;241;28461;-74
2024/03/29 06:32:23;;;;;;;2.07;1.40;;;7.80;99.90;;;;;;493915;241;28544;-73
2024/03/29 06:34:24;;;;;;;2.50;1.40;;;7.90;99.90;;;;;;493991;237;28397;-72
2024/03/29 06:36:25;;;;;;;1.73;1.47;;;7.80;99.90;;;;;;493939;241;28494;-74
2024/03/29 06:38:27;;;;;;;2.50;2.03;;;7.80;99.90;;;;;;493945;241;28269;-74
2024/03/29 06:40:28;;;;;;;2.47;2.00;;;7.80;99.90;;;;;;493924;241;27615;-74
2024/03/29 06:42:30;;;;;;;2.50;1.80;;;7.90;99.90;;;;;;493954;241;27982;-74
2024/03/29 06:44:30;;;;;;;1.70;1.60;;;7.90;99.90;;;;;;493928;241;27944;-73
2024/03/29 06:46:34;;;;;;;1.60;1.50;;;7.90;99.90;;;;;;493916;241;27493;-74
2024/03/29 06:48:33;;;;;;;3.27;1.60;;;7.90;99.90;;;;;;493765;241;27980;-73
2024/03/29 06:50:34;;;;;;;1.50;1.40;;;7.80;99.90;;;;;;493941;237;28062;-74
2024/03/29 06:52:35;;;;;;;2.03;1.93;;;7.80;99.90;;;;;;493979;237;27860;-75
2024/03/29 06:54:37;;;;;;;2.90;1.50;;;7.90;99.90;;;;;;493940;241;27969;-74
2024/03/29 06:56:38;;;;;;;5.33;1.70;;;7.90;99.90;;;;;;493903;241;27901;-73
2024/03/29 06:58:39;;;;;;;7.50;1.60;;;7.90;99.90;;;;;;493892;241;28117;-72
2024/03/29 07:00:40;;;;;;;1.50;1.30;;;7.90;99.90;;;;;;493969;237;27658;-73
2024/03/29 07:02:42;;;;;;;1.60;1.50;;;7.90;99.90;;;;;;493950;241;27878;-73
2024/03/29 07:04:43;;;;;;;1.40;1.30;;;8.00;99.90;;;;;;493908;241;28347;-73
2024/03/29 07:06:47;;;;;;;4.30;1.50;;;8.00;99.90;;;;;;493882;241;27941;-73
2024/03/29 07:08:47;;;;;;;1.30;1.27;;;8.00;99.90;;;;;;493756;241;28609;-73
2024/03/29 07:10:47;;;;;;;3.47;1.33;;;8.00;99.90;;;;;;493911;241;28451;-73
2024/03/29 07:12:48;;;;;;;2.50;1.30;;;8.00;99.90;;;;;;493974;241;28629;-75
2024/03/29 07:14:49;;;;;;;1.20;1.10;;;8.10;99.90;;;;;;493983;241;28519;-73
2024/03/29 07:16:50;;;;;;;2.20;1.40;;;8.10;99.90;;;;;;493924;241;28614;-73
2024/03/29 07:18:52;;;;;;;2.30;1.47;;;8.10;99.90;;;;;;493987;241;28234;-75
2024/03/29 07:20:53;;;;;;;1.30;1.20;;;8.10;99.90;;;;;;493968;241;27879;-73
2024/03/29 07:22:54;;;;;;;1.80;1.30;;;8.20;99.90;;;;;;493947;237;27933;-73
2024/03/29 07:24:55;;;;;;;1.50;1.40;;;8.20;99.90;;;;;;493923;241;28014;-72
2024/03/29 07:26:57;;;;;;;1.10;1.00;;;8.30;99.90;;;;;;493691;237;27922;-73
2024/03/29 07:28:58;;;;;;;1.23;1.13;;;8.30;99.90;;;;;;493956;241;27876;-75
2024/03/29 07:30:59;;;;;;;1.80;1.20;;;8.40;99.90;;;;;;493935;241;28032;-73
2024/03/29 07:33:00;;;;;;;3.50;1.27;;;8.50;99.90;;;;;;493918;241;27651;-73
2024/03/29 07:35:02;;;;;;;2.50;1.30;;;8.50;99.90;;;;;;493911;241;28038;-73
2024/03/29 07:37:03;;;;;;;3.50;1.30;;;8.50;99.90;;;;;;493907;241;27965;-74
2024/03/29 07:39:04;;;;;;;3.10;1.13;;;8.50;99.90;;;;;;493958;241;28023;-75
2024/03/29 07:41:09;;;;;;;1.37;1.27;;;8.60;99.90;;;;;;493886;241;27940;-72
2024/03/29 07:43:09;;;;;;;1.30;1.20;;;8.50;99.90;;;;;;493836;241;28333;-73
2024/03/29 07:45:10;;;;;;;1.70;1.40;;;8.60;99.90;;;;;;493890;241;28234;-74
2024/03/29 07:47:14;;;;;;;4.97;1.40;;;8.60;99.90;;;;;;493785;241;28005;-73
2024/03/29 07:49:21;;;;;;;2.00;1.60;;;8.70;99.90;;;;;;493881;241;28234;-70
2024/03/29 07:51:17;;;;;;;1.30;1.20;;;8.70;99.90;;;;;;493531;241;27987;-74
2024/03/29 07:53:18;;;;;;;1.87;1.30;;;8.70;99.90;;;;;;493893;241;28009;-73
2024/03/29 07:55:19;;;;;;;1.30;1.20;;;8.70;99.90;;;;;;493906;241;27925;-74
2024/03/29 07:57:21;;;;;;;2.03;1.60;;;8.70;99.90;;;;;;493900;241;27864;-74
2024/03/29 07:59:22;;;;;;;1.53;1.20;;;8.80;99.90;;;;;;493871;241;27900;-73
2024/03/29 08:01:23;;;;;;;1.60;1.40;;;8.80;99.90;;;;;;493952;241;28507;-73
2024/03/29 08:03:24;;;;;;;8.93;5.60;;;8.80;99.90;;;;;;493812;239;28489;-74
2024/03/29 08:05:26;;;;;;;201.83;97.60;;;8.70;99.90;;;;;;495225;239;28355;-73
2024/03/29 08:07:27;;;;;;;38.13;21.30;;;8.70;99.90;;;;;;495599;239;28437;-73
2024/03/29 08:09:28;;;;;;;6.47;4.23;;;8.70;99.90;;;;;;495068;239;28064;-75
2024/03/29 08:11:29;;;;;;;2.70;2.37;;;8.70;99.90;;;;;;493791;241;28010;-74
2024/03/29 08:13:31;;;;;;;6.27;3.20;;;8.70;99.90;;;;;;493780;237;27985;-74
2024/03/29 08:15:32;;;;;;;6.43;4.50;;;8.70;99.90;;;;;;493725;241;27762;-73
2024/03/29 08:17:33;;;;;;;4.40;3.60;;;8.80;99.90;;;;;;493743;241;27996;-74
2024/03/29 08:19:34;;;;;;;2.73;2.20;;;8.80;99.90;;;;;;493762;239;27918;-75
2024/03/29 08:21:36;;;;;;;3.97;3.00;;;9.00;99.90;;;;;;493835;241;27915;-73
2024/03/29 08:23:38;;;;;;;3.10;2.20;;;9.10;99.90;;;;;;493709;241;27959;-74
2024/03/29 08:25:38;;;;;;;4.00;3.70;;;9.10;99.90;;;;;;493725;241;27990;-73
2024/03/29 08:27:39;;;;;;;5.00;4.07;;;9.20;99.90;;;;;;493830;241;27925;-74
2024/03/29 08:29:41;;;;;;;6.93;2.87;;;9.20;99.90;;;;;;493858;241;28101;-74
2024/03/29 08:31:42;;;;;;;5.90;4.00;;;9.20;99.90;;;;;;493891;241;27587;-73
2024/03/29 08:33:43;;;;;;;5.40;4.87;;;9.20;99.90;;;;;;493899;241;28126;-73
2024/03/29 08:35:44;;;;;;;3.70;2.50;;;9.20;99.90;;;;;;493901;241;29130;-73
2024/03/29 08:37:46;;;;;;;3.93;3.30;;;9.30;99.90;;;;;;493895;241;28574;-73
2024/03/29 08:39:47;;;;;;;7.53;3.10;;;9.30;99.90;;;;;;493925;241;29385;-74
2024/03/29 08:41:48;;;;;;;4.60;2.37;;;9.40;99.90;;;;;;493918;237;28027;-73
2024/03/29 08:43:49;;;;;;;6.23;1.90;;;9.40;99.90;;;;;;493844;241;28472;-74
2024/03/29 08:45:51;;;;;;;6.50;2.77;;;9.40;99.90;;;;;;493920;241;27989;-73
2024/03/29 08:47:53;;;;;;;6.40;4.97;;;9.50;99.90;;;;;;493800;241;27780;-73
2024/03/29 08:49:53;;;;;;;8.07;4.87;;;9.50;99.90;;;;;;494660;239;27911;-73
2024/03/29 08:51:54;;;;;;;4.40;4.00;;;9.50;99.90;;;;;;495747;239;28044;-73
2024/03/29 08:53:57;;;;;;;6.33;4.90;;;9.50;99.90;;;;;;495739;239;27962;-73
2024/03/29 08:55:57;;;;;;;11.30;9.53;;;9.40;99.90;;;;;;495665;240;28004;-74
2024/03/29 08:57:58;;;;;;;7.03;6.43;;;9.40;99.90;;;;;;495803;239;27683;-73
2024/03/29 08:59:59;;;;;;;13.80;11.30;;;9.40;99.90;;;;;;495782;239;27964;-74
2024/03/29 09:02:01;;;;;;;5.67;4.60;;;9.40;99.90;;;;;;495682;239;27577;-73
2024/03/29 09:04:03;;;;;;;4.63;2.90;;;9.50;99.90;;;;;;495724;239;28051;-74
2024/03/29 09:06:03;;;;;;;4.83;2.90;;;9.60;99.90;;;;;;495672;240;27933;-75
2024/03/29 09:08:04;;;;;;;3.37;2.47;;;9.70;99.90;;;;;;495660;239;27832;-73
2024/03/29 09:10:06;;;;;;;4.03;2.83;;;9.70;99.90;;;;;;495484;240;28078;-74
2024/03/29 09:12:07;;;;;;;6.20;4.20;;;9.70;99.90;;;;;;495732;239;29326;-73
2024/03/29 09:14:09;;;;;;;7.50;4.00;;;9.70;99.90;;;;;;495747;239;28428;-73
2024/03/29 09:16:09;;;;;;;6.13;2.20;;;9.60;99.90;;;;;;495672;240;28428;-74
2024/03/29 09:18:19;;;;;;;4.23;2.47;;;9.50;99.90;;;;;;495748;239;28331;-74
2024/03/29 09:20:12;;;;;;;3.17;2.87;;;9.40;99.90;;;;;;494923;239;28503;-73
2024/03/29 09:22:13;;;;;;;5.83;3.07;;;9.50;99.90;;;;;;495721;239;28605;-73
2024/03/29 09:24:16;;;;;;;2.87;2.17;;;9.60;99.90;;;;;;495740;239;27963;-73
2024/03/29 09:26:16;;;;;;;4.53;2.17;;;9.70;99.90;;;;;;494298;240;28068;-73
2024/03/29 09:28:17;;;;;;;3.70;2.30;;;9.70;99.90;;;;;;493224;241;28016;-74
2024/03/29 09:30:19;;;;;;;4.33;3.80;;;9.80;99.90;;;;;;493563;241;28057;-72
2024/03/29 09:32:21;;;;;;;6.57;3.73;;;9.80;99.90;;;;;;493857;241;27657;-73
2024/03/29 09:34:23;;;;;;;5.93;4.20;;;9.80;99.90;;;;;;493812;241;27987;-74
2024/03/29 09:36:26;;;;;;;3.73;3.43;;;9.70;99.90;;;;;;493727;241;27827;-74
2024/03/29 09:38:23;;;;;;;7.93;4.53;;;9.70;99.90;;;;;;493600;241;27928;-72
2024/03/29 09:40:24;;;;;;;5.70;4.50;;;9.70;99.90;;;;;;493867;241;28326;-73
2024/03/29 09:42:26;;;;;;;4.10;2.93;;;9.80;99.90;;;;;;493878;241;28439;-76
2024/03/29 09:44:27;;;;;;;8.47;3.07;;;9.90;99.90;;;;;;493819;241;28077;-73
2024/03/29 09:46:28;;;;;;;4.90;3.00;;;10.00;99.90;;;;;;493728;241;27913;-73
2024/03/29 09:48:36;;;;;;;5.50;3.20;;;10.10;99.90;;;;;;493577;237;27748;-73
2024/03/29 09:50:31;;;;;;;9.33;3.80;;;10.20;99.90;;;;;;493225;241;28067;-73
2024/03/29 09:52:32;;;;;;;9.40;6.50;;;10.30;99.90;;;;;;493882;241;28138;-75
2024/03/29 09:54:33;;;;;;;7.10;6.00;;;10.30;99.90;;;;;;493878;241;27999;-73
2024/03/29 09:56:34;;;;;;;10.90;9.33;;;10.30;99.90;;;;;;493832;239;28477;-74
2024/03/29 09:58:36;;;;;;;4.60;3.57;;;10.50;99.90;;;;;;493877;241;28082;-74
2024/03/29 10:00:37;;;;;;;4.13;3.40;;;10.60;99.90;;;;;;493898;241;28577;-73
2024/03/29 10:02:38;;;;;;;22.90;16.50;;;10.70;99.90;;;;;;493755;241;28780;-73
2024/03/29 10:04:39;;;;;;;16.13;12.20;;;10.70;99.90;;;;;;493827;241;28527;-75
2024/03/29 10:06:43;;;;;;;16.43;9.70;;;10.80;99.90;;;;;;493727;241;28349;-74
2024/03/29 10:08:42;;;;;;;8.30;5.37;;;11.10;99.90;;;;;;493643;241;28133;-75
2024/03/29 10:10:43;;;;;;;4.27;3.60;;;11.10;99.90;;;;;;493848;241;28180;-73
2024/03/29 10:12:44;;;;;;;6.90;3.90;;;11.10;99.90;;;;;;493886;241;28215;-74
2024/03/29 10:14:49;;;;;;;4.63;3.60;;;11.10;99.90;;;;;;493812;241;28337;-73
2024/03/29 10:16:47;;;;;;;3.50;2.90;;;11.00;99.90;;;;;;493660;237;28498;-73
2024/03/29 10:18:48;;;;;;;7.30;2.83;;;11.00;99.90;;;;;;493910;241;28435;-75
2024/03/29 10:20:49;;;;;;;3.13;2.70;;;11.20;99.90;;;;;;493916;241;28282;-73
2024/03/29 10:22:51;;;;;;;15.57;10.63;;;11.30;99.90;;;;;;493776;241;28730;-73
2024/03/29 10:24:52;;;;;;;4.83;3.83;;;11.40;99.90;;;;;;493791;241;29595;-73
2024/03/29 10:26:53;;;;;;;5.97;5.33;;;11.60;99.90;;;;;;494449;239;28875;-74
2024/03/29 10:28:54;;;;;;;4.30;3.13;;;11.70;99.90;;;;;;495603;239;28613;-74
2024/03/29 10:30:56;;;;;;;4.30;3.80;;;11.60;99.90;;;;;;495679;239;28361;-73
2024/03/29 10:32:57;;;;;;;3.13;2.23;;;11.70;99.90;;;;;;495727;239;28068;-73
2024/03/29 10:35:02;;;;;;;8.30;6.10;;;11.80;99.90;;;;;;495808;239;28317;-74
2024/03/29 10:36:59;;;;;;;6.87;5.90;;;11.90;99.90;;;;;;495461;240;28028;-73
2024/03/29 10:39:01;;;;;;;3.23;2.93;;;11.70;99.90;;;;;;495701;239;28073;-74
2024/03/29 10:41:03;;;;;;;3.50;2.50;;;11.60;99.90;;;;;;495707;239;28439;-73
2024/03/29 10:43:06;;;;;;;8.83;6.50;;;11.50;99.90;;;;;;495616;240;28449;-73
2024/03/29 10:45:05;;;;;;;5.00;4.50;;;11.30;99.90;;;;;;495473;240;29280;-74
2024/03/29 10:47:06;;;;;;;7.13;6.40;;;11.00;99.90;;;;;;495675;239;28499;-73